Time;durP1;ratioP1;P1;durP2;ratioP2;P2;SDS_P1;SDS_P2;PMS_P1;PMS_P2;Temp;Humidity;BMP_temperature;BMP_pressure;BME280_temperature;BME280_humidity;BME280_pressure;Samples;Min_cycle;Max_cycle;Signal;HPM_P1;HPM_P2
2023/05/14 00:02:36;;;;;;;3.83;1.70;;;;;;;;;;6171676;28;20058;-75
2023/05/14 00:05:37;;;;;;;3.03;1.90;;;;;;;;;;6171907;28;20058;-75
2023/05/14 00:08:39;;;;;;;2.30;1.80;;;;;;;;;;6167403;28;20050;-76
2023/05/14 00:11:41;;;;;;;2.53;2.00;;;;;;;;;;6172419;28;20137;-74
2023/05/14 00:14:44;;;;;;;3.08;2.20;;;;;;;;;;6167742;28;20354;-75
2023/05/14 00:17:45;;;;;;;4.67;2.10;;;;;;;;;;6180949;28;20045;-75
2023/05/14 00:20:48;;;;;;;2.83;2.10;;;;;;;;;;6195394;28;20058;-74
2023/05/14 00:23:49;;;;;;;2.50;1.88;;;;;;;;;;6195512;28;20054;-75
2023/05/14 00:26:51;;;;;;;4.07;2.13;;;;;;;;;;6194995;28;20058;-76
2023/05/14 00:29:54;;;;;;;3.42;1.50;;;;;;;;;;6195944;28;20334;-75
2023/05/14 00:32:56;;;;;;;3.05;1.70;;;;;;;;;;6193831;28;20061;-74
2023/05/14 00:35:58;;;;;;;3.58;2.45;;;;;;;;;;6190517;28;20125;-75
2023/05/14 00:38:59;;;;;;;2.05;1.55;;;;;;;;;;6174637;28;20106;-75
2023/05/14 00:42:01;;;;;;;2.13;1.50;;;;;;;;;;6171219;28;20065;-75
2023/05/14 00:45:05;;;;;;;2.85;1.67;;;;;;;;;;6171112;28;20054;-74
2023/05/14 00:48:07;;;;;;;2.28;1.60;;;;;;;;;;6169594;28;20079;-74
2023/05/14 00:51:08;;;;;;;2.55;1.75;;;;;;;;;;6172542;28;20054;-74
2023/05/14 00:54:10;;;;;;;2.38;1.60;;;;;;;;;;6172146;28;20291;-74
2023/05/14 00:57:12;;;;;;;2.75;1.67;;;;;;;;;;6170258;28;20103;-74
2023/05/14 01:00:16;;;;;;;1.90;1.45;;;;;;;;;;6170176;28;20063;-73
2023/05/14 01:03:18;;;;;;;;;;;;;;;;;;6169839;28;20094;-73
2023/05/14 01:06:26;;;;;;;3.58;2.10;;;;;;;;;;6169711;28;19925;-73
2023/05/14 01:09:34;;;;;;;4.68;1.70;;;;;;;;;;6192250;28;20054;-74
2023/05/14 01:12:40;;;;;;;3.03;1.70;;;;;;;;;;6177608;28;20164;-73
2023/05/14 01:15:44;;;;;;;3.67;1.88;;;;;;;;;;6180219;28;20296;-75
2023/05/14 01:18:45;;;;;;;;;;;;;;;;;;6177150;28;20282;-73
2023/05/14 01:21:48;;;;;;;4.32;2.20;;;;;;;;;;6169388;28;19929;-73
2023/05/14 01:24:50;;;;;;;3.05;2.55;;;;;;;;;;6167867;28;20154;-75
2023/05/14 01:27:56;;;;;;;2.47;1.60;;;;;;;;;;6169430;28;20332;-75
2023/05/14 01:31:02;;;;;;;2.38;1.83;;;;;;;;;;6169532;28;20255;-75
2023/05/14 01:34:05;;;;;;;3.15;2.00;;;;;;;;;;6170520;28;20062;-74
2023/05/14 01:37:09;;;;;;;2.78;1.83;;;;;;;;;;6169206;28;20074;-73
2023/05/14 01:40:11;;;;;;;2.42;1.77;;;;;;;;;;6171795;28;20061;-74
2023/05/14 01:43:13;;;;;;;3.03;1.85;;;;;;;;;;6168182;28;20098;-74
2023/05/14 01:46:18;;;;;;;2.55;1.80;;;;;;;;;;6172039;28;20339;-75
2023/05/14 01:49:19;;;;;;;2.75;2.00;;;;;;;;;;6169380;28;20250;-74
2023/05/14 01:52:22;;;;;;;3.25;1.98;;;;;;;;;;6187107;28;20077;-74
2023/05/14 01:55:24;;;;;;;2.33;1.87;;;;;;;;;;6171763;28;20059;-74
2023/05/14 01:58:26;;;;;;;3.22;2.10;;;;;;;;;;6174510;28;20477;-73
2023/05/14 02:01:27;;;;;;;3.13;2.03;;;;;;;;;;6188283;28;20105;-74
2023/05/14 02:04:29;;;;;;;2.58;1.63;;;;;;;;;;6177832;28;20208;-73
2023/05/14 02:07:32;;;;;;;3.95;2.08;;;;;;;;;;6172700;28;20074;-75
2023/05/14 02:10:34;;;;;;;4.38;1.90;;;;;;;;;;6176394;28;20046;-74
2023/05/14 02:13:36;;;;;;;2.83;1.67;;;;;;;;;;6173767;28;20082;-74
2023/05/14 02:16:38;;;;;;;4.00;2.00;;;;;;;;;;6188058;28;20212;-73
2023/05/14 02:19:39;;;;;;;3.17;1.60;;;;;;;;;;6200834;28;20101;-74
2023/05/14 02:22:44;;;;;;;2.72;1.60;;;;;;;;;;6194349;28;20077;-75
2023/05/14 02:25:46;;;;;;;3.92;1.40;;;;;;;;;;6200102;28;20080;-73
2023/05/14 02:28:47;;;;;;;2.90;1.50;;;;;;;;;;6199051;28;20270;-75
2023/05/14 02:31:49;;;;;;;4.60;1.50;;;;;;;;;;6196220;28;20046;-75
2023/05/14 02:34:50;;;;;;;3.17;2.05;;;;;;;;;;6200709;28;20058;-75
2023/05/14 02:37:54;;;;;;;5.53;2.88;;;;;;;;;;6197106;28;20054;-75
2023/05/14 02:40:55;;;;;;;6.95;2.72;;;;;;;;;;6196662;28;20357;-75
2023/05/14 02:43:57;;;;;;;5.65;2.95;;;;;;;;;;6198930;28;20382;-75
2023/05/14 02:46:58;;;;;;;4.43;3.03;;;;;;;;;;6197183;28;20055;-75
2023/05/14 02:50:00;;;;;;;5.22;3.17;;;;;;;;;;6200917;28;20054;-75
2023/05/14 02:53:03;;;;;;;4.43;2.97;;;;;;;;;;6198026;28;20077;-75
2023/05/14 02:56:05;;;;;;;4.60;3.40;;;;;;;;;;6198974;28;20050;-76
2023/05/14 02:59:06;;;;;;;6.20;3.65;;;;;;;;;;6195416;28;20062;-75
2023/05/14 03:02:08;;;;;;;5.60;3.83;;;;;;;;;;6197451;28;20144;-75
2023/05/14 03:05:10;;;;;;;5.50;3.95;;;;;;;;;;6198536;28;20232;-75
2023/05/14 03:08:13;;;;;;;5.50;3.70;;;;;;;;;;6199575;28;20266;-75
2023/05/14 03:11:14;;;;;;;4.82;3.40;;;;;;;;;;6198297;28;20058;-74
2023/05/14 03:14:16;;;;;;;5.57;3.33;;;;;;;;;;6196661;28;20063;-76
2023/05/14 03:17:17;;;;;;;4.93;3.60;;;;;;;;;;6195472;28;20050;-75
2023/05/14 03:20:19;;;;;;;5.75;3.72;;;;;;;;;;6195029;28;20086;-76
2023/05/14 03:23:22;;;;;;;6.03;4.32;;;;;;;;;;6194695;28;20101;-75
2023/05/14 03:26:24;;;;;;;6.05;4.63;;;;;;;;;;6195870;28;20105;-75
2023/05/14 03:29:25;;;;;;;6.72;5.43;;;;;;;;;;6195044;28;20058;-76
2023/05/14 03:32:27;;;;;;;6.68;5.50;;;;;;;;;;6197416;28;20059;-75
2023/05/14 03:35:28;;;;;;;7.47;5.32;;;;;;;;;;6195309;28;20352;-75
2023/05/14 03:38:31;;;;;;;6.90;5.70;;;;;;;;;;6195518;28;20098;-75
2023/05/14 03:41:33;;;;;;;8.65;6.13;;;;;;;;;;6195753;28;20062;-75
2023/05/14 03:44:34;;;;;;;9.40;6.40;;;;;;;;;;6196745;28;20093;-75
2023/05/14 03:47:36;;;;;;;8.75;6.60;;;;;;;;;;6199956;28;20050;-75
2023/05/14 03:50:38;;;;;;;9.02;7.00;;;;;;;;;;6195732;28;20235;-76
2023/05/14 03:53:41;;;;;;;10.25;8.50;;;;;;;;;;6195235;28;20065;-76
2023/05/14 03:56:43;;;;;;;10.90;7.90;;;;;;;;;;6196324;28;20057;-76
2023/05/14 03:59:44;;;;;;;9.15;8.15;;;;;;;;;;6194051;28;20368;-75
2023/05/14 04:02:46;;;;;;;11.93;8.32;;;;;;;;;;6194230;28;20326;-75
2023/05/14 04:05:48;;;;;;;10.77;8.77;;;;;;;;;;6197840;28;20081;-76
2023/05/14 04:08:50;;;;;;;11.15;8.38;;;;;;;;;;6192865;28;20282;-75
2023/05/14 04:11:52;;;;;;;11.02;7.20;;;;;;;;;;6196168;28;20050;-76
2023/05/14 04:14:54;;;;;;;9.95;7.30;;;;;;;;;;6193565;28;20062;-75
2023/05/14 04:17:55;;;;;;;8.20;6.10;;;;;;;;;;6194230;28;20230;-77
2023/05/14 04:20:57;;;;;;;7.63;5.03;;;;;;;;;;6194680;28;20101;-74
2023/05/14 04:24:00;;;;;;;7.32;5.30;;;;;;;;;;6195626;28;20465;-75
2023/05/14 04:27:02;;;;;;;6.13;4.50;;;;;;;;;;6193914;28;20106;-75
2023/05/14 04:30:05;;;;;;;5.45;3.70;;;;;;;;;;6194723;28;20337;-75
2023/05/14 04:33:06;;;;;;;5.32;4.30;;;;;;;;;;6195143;28;20053;-75
2023/05/14 04:36:08;;;;;;;5.03;3.88;;;;;;;;;;6195766;28;20397;-75
2023/05/14 04:39:12;;;;;;;6.53;4.18;;;;;;;;;;6195767;28;21261;-75
2023/05/14 04:42:13;;;;;;;7.57;4.85;;;;;;;;;;6196733;28;21244;-75
2023/05/14 04:45:15;;;;;;;4.38;3.95;;;;;;;;;;6193332;28;20050;-75
2023/05/14 04:48:17;;;;;;;7.32;3.85;;;;;;;;;;6194770;28;20100;-74
2023/05/14 04:51:18;;;;;;;4.60;4.03;;;;;;;;;;6194986;28;20094;-73
2023/05/14 04:54:21;;;;;;;6.00;3.80;;;;;;;;;;6194094;28;20058;-74
2023/05/14 04:57:23;;;;;;;4.57;3.65;;;;;;;;;;6195369;28;20054;-73
2023/05/14 05:00:25;;;;;;;5.75;3.85;;;;;;;;;;6194663;28;20101;-73
2023/05/14 05:03:26;;;;;;;4.18;3.70;;;;;;;;;;6193388;28;20104;-72
2023/05/14 05:06:28;;;;;;;5.53;3.90;;;;;;;;;;6191852;28;20386;-74
2023/05/14 05:09:31;;;;;;;6.85;3.83;;;;;;;;;;6194398;28;20698;-73
2023/05/14 05:12:34;;;;;;;5.70;3.63;;;;;;;;;;6194463;28;20058;-73
2023/05/14 05:15:35;;;;;;;5.85;3.58;;;;;;;;;;6195354;28;20065;-73
2023/05/14 05:18:37;;;;;;;4.03;3.05;;;;;;;;;;6193182;28;20059;-74
2023/05/14 05:21:40;;;;;;;3.95;3.15;;;;;;;;;;6194503;28;20101;-74
2023/05/14 05:24:43;;;;;;;3.67;2.90;;;;;;;;;;6194021;28;20350;-73
2023/05/14 05:27:45;;;;;;;4.93;2.80;;;;;;;;;;6192294;28;20050;-73
2023/05/14 05:30:46;;;;;;;3.33;2.90;;;;;;;;;;6192550;28;20545;-74
2023/05/14 05:33:48;;;;;;;3.08;2.75;;;;;;;;;;6198197;28;20113;-74
2023/05/14 05:36:50;;;;;;;3.92;2.88;;;;;;;;;;6195890;28;20117;-74
2023/05/14 05:39:53;;;;;;;4.30;3.10;;;;;;;;;;6199234;28;20067;-74
2023/05/14 05:42:54;;;;;;;4.25;2.40;;;;;;;;;;6197893;28;20310;-73
2023/05/14 05:45:56;;;;;;;3.85;2.85;;;;;;;;;;6199079;28;20050;-74
2023/05/14 05:48:58;;;;;;;3.47;2.40;;;;;;;;;;6199077;28;20066;-74
2023/05/14 05:51:59;;;;;;;6.20;2.45;;;;;;;;;;6199652;28;20089;-74
2023/05/14 05:55:02;;;;;;;2.67;1.95;;;;;;;;;;6196287;28;20097;-75
2023/05/14 05:58:04;;;;;;;5.70;3.13;;;;;;;;;;6199293;28;20334;-74
2023/05/14 06:01:05;;;;;;;3.70;2.15;;;;;;;;;;6198359;28;20225;-73
2023/05/14 06:04:07;;;;;;;2.70;1.90;;;;;;;;;;6199355;28;20082;-74
2023/05/14 06:07:09;;;;;;;3.67;2.30;;;;;;;;;;6199121;28;20053;-74
2023/05/14 06:10:12;;;;;;;3.38;2.00;;;;;;;;;;6198074;28;20054;-74
2023/05/14 06:13:13;;;;;;;2.63;2.23;;;;;;;;;;6196089;28;20841;-74
2023/05/14 06:16:15;;;;;;;3.15;2.60;;;;;;;;;;6198674;28;20498;-74
2023/05/14 06:19:17;;;;;;;3.05;2.50;;;;;;;;;;6195620;28;20105;-74
2023/05/14 06:22:18;;;;;;;3.85;3.10;;;;;;;;;;6199269;28;20331;-74
2023/05/14 06:25:21;;;;;;;4.07;3.05;;;;;;;;;;6197455;28;20054;-75
2023/05/14 06:28:23;;;;;;;4.67;3.00;;;;;;;;;;6196791;28;20109;-74
2023/05/14 06:31:25;;;;;;;3.38;2.80;;;;;;;;;;6196610;28;20516;-74
2023/05/14 06:34:26;;;;;;;3.25;2.85;;;;;;;;;;6195716;28;20111;-74
2023/05/14 06:37:28;;;;;;;6.18;2.95;;;;;;;;;;6198382;28;21505;-74
2023/05/14 06:40:31;;;;;;;2.92;2.55;;;;;;;;;;6199808;28;20290;-74
2023/05/14 06:43:32;;;;;;;4.60;2.70;;;;;;;;;;6196743;28;20053;-75
2023/05/14 06:46:34;;;;;;;3.83;2.53;;;;;;;;;;6197818;28;20058;-75
2023/05/14 06:49:36;;;;;;;3.33;2.60;;;;;;;;;;6196207;28;20058;-74
2023/05/14 06:52:38;;;;;;;4.22;3.05;;;;;;;;;;6192458;28;20056;-75
2023/05/14 06:55:41;;;;;;;3.15;2.50;;;;;;;;;;6194119;28;20105;-75
2023/05/14 06:58:42;;;;;;;4.38;2.28;;;;;;;;;;6197706;28;20322;-75
2023/05/14 07:01:44;;;;;;;403.77;26.50;;;;;;;;;;6194603;28;20228;-79
2023/05/14 07:04:46;;;;;;;5.60;2.28;;;;;;;;;;6196743;28;20070;-76
2023/05/14 07:07:47;;;;;;;3.80;2.55;;;;;;;;;;6193991;28;20101;-79
2023/05/14 07:10:51;;;;;;;2.92;2.25;;;;;;;;;;6197543;28;20108;-81
2023/05/14 07:13:52;;;;;;;4.32;2.30;;;;;;;;;;6194470;28;20054;-80
2023/05/14 07:16:54;;;;;;;3.13;2.17;;;;;;;;;;6194452;28;20062;-80
2023/05/14 07:19:55;;;;;;;3.10;2.22;;;;;;;;;;6194563;28;20055;-80
2023/05/14 07:22:57;;;;;;;3.90;2.05;;;;;;;;;;6194765;28;20054;-80
2023/05/14 07:26:00;;;;;;;2.75;2.10;;;;;;;;;;6198636;28;20050;-80
2023/05/14 07:29:02;;;;;;;2.70;1.83;;;;;;;;;;6194949;28;20049;-78
2023/05/14 07:32:04;;;;;;;2.67;1.80;;;;;;;;;;6195251;28;20361;-78
2023/05/14 07:35:06;;;;;;;3.15;1.70;;;;;;;;;;6175863;28;20050;-79
2023/05/14 07:38:08;;;;;;;2.70;1.50;;;;;;;;;;6184482;28;20292;-79
2023/05/14 07:41:11;;;;;;;2.53;1.70;;;;;;;;;;6169110;28;20055;-80
2023/05/14 07:44:13;;;;;;;1.70;1.43;;;;;;;;;;6170935;28;20046;-81
2023/05/14 07:47:15;;;;;;;2.25;1.45;;;;;;;;;;6170246;28;20066;-79
2023/05/14 07:50:17;;;;;;;2.63;1.80;;;;;;;;;;6169642;28;20071;-78
2023/05/14 07:53:18;;;;;;;3.00;1.67;;;;;;;;;;6170811;28;20055;-79
2023/05/14 07:56:21;;;;;;;3.30;1.50;;;;;;;;;;6169912;28;20102;-79
2023/05/14 07:59:23;;;;;;;1.90;1.40;;;;;;;;;;6175838;28;20274;-80
2023/05/14 08:02:24;;;;;;;2.65;1.50;;;;;;;;;;6192679;28;20521;-79
2023/05/14 08:05:26;;;;;;;1.80;1.55;;;;;;;;;;6172607;28;20065;-77
2023/05/14 08:08:28;;;;;;;3.05;1.60;;;;;;;;;;6170623;28;20054;-78
2023/05/14 08:11:31;;;;;;;2.80;1.40;;;;;;;;;;6171871;28;20086;-78
2023/05/14 08:14:32;;;;;;;2.75;1.40;;;;;;;;;;6173186;28;20047;-77
2023/05/14 08:17:34;;;;;;;2.95;1.23;;;;;;;;;;6168792;28;20050;-79
2023/05/14 08:20:36;;;;;;;1.23;1.00;;;;;;;;;;6169645;28;20051;-79
2023/05/14 08:23:37;;;;;;;1.90;0.90;;;;;;;;;;6170064;28;20062;-79
2023/05/14 08:26:40;;;;;;;2.53;1.08;;;;;;;;;;6172358;28;20046;-78
2023/05/14 08:29:42;;;;;;;2.90;1.23;;;;;;;;;;6185966;28;20063;-79
2023/05/14 08:32:44;;;;;;;1.40;0.80;;;;;;;;;;6171178;28;20059;-78
2023/05/14 08:35:46;;;;;;;1.48;1.15;;;;;;;;;;6171562;28;20077;-77
2023/05/14 08:38:49;;;;;;;2.40;1.23;;;;;;;;;;6167218;28;20270;-78
2023/05/14 08:41:52;;;;;;;2.97;1.08;;;;;;;;;;6170489;28;20055;-78
2023/05/14 08:44:58;;;;;;;1.30;1.08;;;;;;;;;;6174269;28;20350;-78
2023/05/14 08:48:00;;;;;;;3.17;1.48;;;;;;;;;;6186039;28;20046;-77
2023/05/14 08:51:02;;;;;;;3.35;1.80;;;;;;;;;;6193327;28;20101;-79
2023/05/14 08:54:05;;;;;;;2.38;1.40;;;;;;;;;;6175177;28;20219;-78
2023/05/14 08:57:09;;;;;;;1.60;1.20;;;;;;;;;;6171318;28;20059;-78
2023/05/14 09:00:14;;;;;;;2.53;1.40;;;;;;;;;;6173576;28;20054;-79
2023/05/14 09:03:17;;;;;;;3.15;1.30;;;;;;;;;;6173783;28;20047;-77
2023/05/14 09:06:21;;;;;;;2.47;1.40;;;;;;;;;;6176687;28;20073;-77
2023/05/14 09:09:23;;;;;;;2.30;1.38;;;;;;;;;;6176783;28;20366;-78
2023/05/14 09:12:26;;;;;;;4.03;1.15;;;;;;;;;;6177896;28;20102;-78
2023/05/14 09:15:29;;;;;;;1.38;1.00;;;;;;;;;;6176839;28;20129;-76
2023/05/14 09:18:31;;;;;;;1.60;1.00;;;;;;;;;;6178056;28;20220;-79
2023/05/14 09:21:33;;;;;;;1.42;1.00;;;;;;;;;;6200948;28;20497;-77
2023/05/14 09:24:35;;;;;;;1.02;0.50;;;;;;;;;;6183554;28;20278;-81
2023/05/14 09:27:38;;;;;;;1.65;0.57;;;;;;;;;;6178382;28;20093;-79
2023/05/14 09:30:40;;;;;;;1.65;0.80;;;;;;;;;;6175141;28;20046;-79
2023/05/14 09:33:41;;;;;;;1.23;0.77;;;;;;;;;;6185829;28;20062;-77
2023/05/14 09:36:43;;;;;;;0.88;0.60;;;;;;;;;;6182826;28;20117;-78
2023/05/14 09:39:45;;;;;;;1.20;0.60;;;;;;;;;;6175089;28;20163;-77
2023/05/14 09:42:48;;;;;;;1.75;0.63;;;;;;;;;;6174879;28;20058;-75
2023/05/14 09:45:49;;;;;;;2.22;0.80;;;;;;;;;;6174940;28;20385;-76
2023/05/14 09:48:51;;;;;;;1.35;0.70;;;;;;;;;;6175980;28;20058;-76
2023/05/14 09:51:53;;;;;;;1.50;0.80;;;;;;;;;;6188141;28;20057;-80
2023/05/14 09:54:55;;;;;;;0.90;0.77;;;;;;;;;;6198354;28;20062;-78
2023/05/14 09:57:58;;;;;;;2.30;0.63;;;;;;;;;;6175276;28;20154;-79
2023/05/14 10:01:01;;;;;;;2.17;0.93;;;;;;;;;;6174844;28;20166;-80
2023/05/14 10:04:03;;;;;;;2.25;1.30;;;;;;;;;;6185310;28;20062;-83
2023/05/14 10:07:05;;;;;;;1.55;0.80;;;;;;;;;;6180327;28;20069;-80
2023/05/14 10:10:08;;;;;;;1.70;0.90;;;;;;;;;;6186338;28;20054;-79
2023/05/14 10:13:15;;;;;;;3.10;1.10;;;;;;;;;;6179066;28;20283;-80
2023/05/14 10:16:21;;;;;;;2.65;0.88;;;;;;;;;;6175525;28;20362;-80
2023/05/14 10:19:24;;;;;;;2.35;0.80;;;;;;;;;;6173943;28;20089;-80
2023/05/14 10:22:31;;;;;;;2.50;0.77;;;;;;;;;;6173744;28;20099;-79
2023/05/14 10:25:33;;;;;;;1.25;0.70;;;;;;;;;;6190225;28;20227;-77
2023/05/14 10:28:37;;;;;;;1.23;0.90;;;;;;;;;;6171856;28;20058;-78
2023/05/14 10:31:48;;;;;;;1.17;0.73;;;;;;;;;;6176568;28;20172;-78
2023/05/14 10:34:50;;;;;;;1.50;0.80;;;;;;;;;;6193318;28;20068;-77
2023/05/14 10:37:52;;;;;;;3.75;0.80;;;;;;;;;;6197573;28;20346;-78
2023/05/14 10:40:56;;;;;;;5.90;2.92;;;;;;;;;;6178235;28;20098;-78
2023/05/14 10:43:59;;;;;;;2.20;1.17;;;;;;;;;;6174219;28;20066;-79
2023/05/14 10:47:01;;;;;;;2.35;0.70;;;;;;;;;;6173936;28;20285;-78
2023/05/14 10:50:05;;;;;;;0.90;0.50;;;;;;;;;;6183111;28;20063;-79
2023/05/14 10:53:11;;;;;;;1.75;0.77;;;;;;;;;;6175087;28;20248;-78
2023/05/14 10:56:13;;;;;;;2.40;0.70;;;;;;;;;;6184409;28;20058;-78
2023/05/14 10:59:17;;;;;;;1.58;0.88;;;;;;;;;;6174465;28;20058;-75
2023/05/14 11:02:18;;;;;;;;;;;;;;;;;;6171168;28;20127;-74
2023/05/14 11:05:20;;;;;;;1.45;0.70;;;;;;;;;;6174718;28;19934;-75
2023/05/14 11:08:22;;;;;;;2.30;0.90;;;;;;;;;;6174849;28;20055;-74
2023/05/14 11:11:25;;;;;;;4.72;0.50;;;;;;;;;;6173681;28;20054;-75
2023/05/14 11:14:28;;;;;;;1.45;0.70;;;;;;;;;;6172413;28;20062;-75
2023/05/14 11:17:30;;;;;;;2.20;0.80;;;;;;;;;;6181745;28;20058;-73
2023/05/14 11:20:32;;;;;;;1.80;0.87;;;;;;;;;;6184193;28;20134;-78
2023/05/14 11:23:34;;;;;;;3.65;0.88;;;;;;;;;;6171546;28;20051;-74
2023/05/14 11:26:35;;;;;;;2.58;0.82;;;;;;;;;;6188402;28;20061;-79
2023/05/14 11:29:39;;;;;;;1.98;0.90;;;;;;;;;;6194306;28;20334;-76
2023/05/14 11:32:40;;;;;;;1.90;0.70;;;;;;;;;;6194282;28;20054;-73
2023/05/14 11:35:44;;;;;;;1.25;0.73;;;;;;;;;;6199639;28;20113;-76
2023/05/14 11:38:47;;;;;;;1.42;0.60;;;;;;;;;;6196327;28;20295;-78
2023/05/14 11:41:49;;;;;;;1.50;0.70;;;;;;;;;;6198023;28;20047;-83
2023/05/14 11:44:53;;;;;;;3.40;0.80;;;;;;;;;;6195950;28;20057;-85
2023/05/14 11:47:55;;;;;;;1.77;1.20;;;;;;;;;;6198905;28;20122;-82
2023/05/14 11:50:56;;;;;;;1.58;0.88;;;;;;;;;;6195694;28;20097;-79
2023/05/14 11:53:58;;;;;;;2.80;1.55;;;;;;;;;;6200702;28;20220;-79
2023/05/14 11:57:01;;;;;;;4.10;0.75;;;;;;;;;;6195484;28;20046;-80
2023/05/14 12:00:08;;;;;;;3.53;0.70;;;;;;;;;;6198618;28;20094;-78
2023/05/14 12:03:10;;;;;;;1.38;0.70;;;;;;;;;;6198594;28;20113;-77
2023/05/14 12:06:11;;;;;;;2.13;0.90;;;;;;;;;;6196082;28;20275;-78
2023/05/14 12:09:15;;;;;;;1.35;0.80;;;;;;;;;;6195122;28;21181;-80
2023/05/14 12:12:17;;;;;;;;;;;;;;;;;;6184647;28;20059;-78
2023/05/14 12:15:21;;;;;;;1.90;0.80;;;;;;;;;;6172337;28;19958;-75
2023/05/14 12:18:24;;;;;;;1.85;0.68;;;;;;;;;;6171439;28;20073;-75
2023/05/14 12:21:27;;;;;;;1.65;0.95;;;;;;;;;;6188383;28;20334;-75
2023/05/14 12:24:29;;;;;;;2.00;1.25;;;;;;;;;;6171496;28;20058;-77
2023/05/14 12:27:31;;;;;;;2.00;0.65;;;;;;;;;;6194780;28;20362;-77
2023/05/14 12:30:38;;;;;;;1.65;0.57;;;;;;;;;;6197000;28;20097;-77
2023/05/14 12:33:40;;;;;;;1.88;0.65;;;;;;;;;;6195095;28;20042;-79
2023/05/14 12:36:42;;;;;;;3.75;0.55;;;;;;;;;;6197583;28;20059;-81
2023/05/14 12:39:43;;;;;;;0.85;0.38;;;;;;;;;;6192283;28;20046;-82
2023/05/14 12:42:45;;;;;;;2.08;0.50;;;;;;;;;;6194240;28;20351;-81
2023/05/14 12:45:48;;;;;;;0.68;0.50;;;;;;;;;;6194193;28;20631;-81
2023/05/14 12:48:50;;;;;;;0.88;0.50;;;;;;;;;;6194479;28;20062;-82
2023/05/14 12:51:53;;;;;;;1.35;0.50;;;;;;;;;;6196340;28;20060;-80
2023/05/14 12:54:54;;;;;;;0.93;0.57;;;;;;;;;;6194542;28;20124;-79
2023/05/14 12:57:56;;;;;;;0.57;0.40;;;;;;;;;;6191610;28;20047;-77
2023/05/14 13:00:59;;;;;;;1.58;0.60;;;;;;;;;;6194444;28;20199;-78
2023/05/14 13:04:01;;;;;;;1.00;0.50;;;;;;;;;;6197574;28;20057;-80
2023/05/14 13:07:03;;;;;;;1.90;0.50;;;;;;;;;;6195279;28;20219;-79
2023/05/14 13:10:06;;;;;;;1.95;0.40;;;;;;;;;;6195729;28;20121;-81
2023/05/14 13:13:08;;;;;;;1.75;0.80;;;;;;;;;;6194987;28;20060;-80
2023/05/14 13:16:15;;;;;;;1.00;0.80;;;;;;;;;;6194591;28;20282;-79
2023/05/14 13:19:17;;;;;;;1.33;0.45;;;;;;;;;;6191941;28;20065;-76
2023/05/14 13:22:18;;;;;;;1.92;1.27;;;;;;;;;;6190425;28;20076;-77
2023/05/14 13:25:21;;;;;;;0.90;0.70;;;;;;;;;;6192371;28;20349;-79
2023/05/14 13:28:23;;;;;;;1.00;0.50;;;;;;;;;;6192763;28;20054;-78
2023/05/14 13:31:26;;;;;;;1.23;0.70;;;;;;;;;;6191199;28;20113;-80
2023/05/14 13:34:27;;;;;;;1.25;0.43;;;;;;;;;;6195139;28;20042;-80
2023/05/14 13:37:29;;;;;;;1.17;0.57;;;;;;;;;;6192181;28;20338;-79
2023/05/14 13:40:31;;;;;;;0.52;0.40;;;;;;;;;;6191585;28;20062;-79
2023/05/14 13:43:35;;;;;;;0.43;0.35;;;;;;;;;;6194302;28;20115;-80
2023/05/14 13:46:38;;;;;;;1.55;0.50;;;;;;;;;;6194564;28;20046;-80
2023/05/14 13:49:40;;;;;;;3.38;0.47;;;;;;;;;;6192561;28;20069;-79
2023/05/14 13:52:41;;;;;;;1.23;0.47;;;;;;;;;;6197157;28;20259;-81
2023/05/14 13:55:43;;;;;;;2.33;0.60;;;;;;;;;;6198604;28;20404;-79
2023/05/14 13:58:45;;;;;;;1.02;0.40;;;;;;;;;;6194498;28;20038;-81
2023/05/14 14:01:48;;;;;;;2.72;0.50;;;;;;;;;;6197724;28;20066;-79
2023/05/14 14:04:50;;;;;;;0.60;0.30;;;;;;;;;;6199941;28;20101;-81
2023/05/14 14:07:52;;;;;;;2.10;0.50;;;;;;;;;;6199712;28;20058;-81
2023/05/14 14:10:54;;;;;;;0.52;0.38;;;;;;;;;;6199012;28;20392;-81
2023/05/14 14:13:56;;;;;;;1.05;0.50;;;;;;;;;;6199091;28;20109;-79
2023/05/14 14:16:59;;;;;;;1.73;0.60;;;;;;;;;;6196485;28;20051;-82
2023/05/14 14:20:00;;;;;;;1.00;0.50;;;;;;;;;;6198291;28;20112;-81
2023/05/14 14:23:02;;;;;;;1.52;0.50;;;;;;;;;;6199452;28;20266;-80
2023/05/14 14:26:04;;;;;;;1.80;0.50;;;;;;;;;;6199810;28;20223;-81
2023/05/14 14:29:06;;;;;;;1.88;0.40;;;;;;;;;;6200104;28;20091;-80
2023/05/14 14:32:09;;;;;;;1.58;0.70;;;;;;;;;;6197465;28;20046;-81
2023/05/14 14:35:11;;;;;;;1.23;0.60;;;;;;;;;;6196684;28;20063;-79
2023/05/14 14:38:13;;;;;;;1.73;0.63;;;;;;;;;;6197365;28;20389;-79
2023/05/14 14:41:15;;;;;;;1.15;0.60;;;;;;;;;;6196923;28;20081;-81
2023/05/14 14:44:17;;;;;;;2.08;0.75;;;;;;;;;;6198526;28;20109;-82
2023/05/14 14:47:20;;;;;;;1.80;0.70;;;;;;;;;;6194200;28;20061;-82
2023/05/14 14:50:24;;;;;;;1.33;0.70;;;;;;;;;;6198894;28;20142;-82
2023/05/14 14:53:26;;;;;;;0.90;0.73;;;;;;;;;;6188063;28;20258;-79
2023/05/14 14:56:29;;;;;;;1.17;0.68;;;;;;;;;;6197567;28;20250;-80
2023/05/14 14:59:31;;;;;;;2.47;0.73;;;;;;;;;;6196264;28;20117;-80
2023/05/14 15:02:36;;;;;;;0.93;0.60;;;;;;;;;;6199769;28;20330;-81
2023/05/14 15:05:38;;;;;;;1.48;0.80;;;;;;;;;;6173564;28;20864;-81
2023/05/14 15:08:40;;;;;;;1.05;0.73;;;;;;;;;;6188829;28;20058;-83
2023/05/14 15:11:42;;;;;;;1.58;1.00;;;;;;;;;;6173208;28;20050;-81
2023/05/14 15:14:43;;;;;;;3.75;1.35;;;;;;;;;;6171939;28;20126;-81
2023/05/14 15:17:47;;;;;;;2.22;0.90;;;;;;;;;;6172181;28;20043;-81
2023/05/14 15:20:48;;;;;;;0.98;0.70;;;;;;;;;;6169429;28;20303;-81
2023/05/14 15:23:52;;;;;;;3.47;0.98;;;;;;;;;;6172733;28;20232;-82
2023/05/14 15:26:54;;;;;;;2.30;1.30;;;;;;;;;;6172088;28;20117;-81
2023/05/14 15:29:56;;;;;;;1.95;1.38;;;;;;;;;;6179685;28;20062;-81
2023/05/14 15:32:59;;;;;;;1.73;1.33;;;;;;;;;;6175715;28;20059;-80
2023/05/14 15:36:01;;;;;;;1.85;1.30;;;;;;;;;;6173831;28;20058;-81
2023/05/14 15:39:02;;;;;;;1.88;1.10;;;;;;;;;;6165600;28;20050;-81
2023/05/14 15:42:05;;;;;;;3.15;1.63;;;;;;;;;;6194981;28;20066;-81
2023/05/14 15:45:07;;;;;;;2.72;1.42;;;;;;;;;;6196033;28;20058;-80
2023/05/14 15:48:10;;;;;;;2.83;1.42;;;;;;;;;;6197947;28;20050;-80
2023/05/14 15:51:13;;;;;;;1.45;1.30;;;;;;;;;;6196703;28;20289;-81
2023/05/14 15:54:14;;;;;;;2.05;1.30;;;;;;;;;;6196136;28;20168;-75
2023/05/14 15:57:16;;;;;;;2.13;1.50;;;;;;;;;;6194551;28;20062;-75
2023/05/14 16:00:18;;;;;;;2.05;1.52;;;;;;;;;;6196683;28;20054;-78
2023/05/14 16:03:21;;;;;;;5.88;1.75;;;;;;;;;;6196172;28;20077;-76
2023/05/14 16:06:23;;;;;;;3.57;1.60;;;;;;;;;;6197851;28;20067;-79
2023/05/14 16:09:25;;;;;;;3.10;1.70;;;;;;;;;;6194930;28;20054;-79
2023/05/14 16:12:27;;;;;;;3.35;2.35;;;;;;;;;;6196679;28;20244;-78
2023/05/14 16:15:28;;;;;;;2.05;1.75;;;;;;;;;;6192142;28;20116;-77
2023/05/14 16:18:33;;;;;;;3.55;2.08;;;;;;;;;;6195892;28;20069;-79
2023/05/14 16:21:35;;;;;;;2.10;1.75;;;;;;;;;;6193755;28;20047;-78
2023/05/14 16:24:37;;;;;;;2.47;1.52;;;;;;;;;;6194094;28;20054;-79
2023/05/14 16:27:38;;;;;;;3.80;2.45;;;;;;;;;;6194362;28;20061;-79
2023/05/14 16:30:40;;;;;;;3.95;2.20;;;;;;;;;;6197037;28;20050;-79
2023/05/14 16:33:43;;;;;;;4.60;2.42;;;;;;;;;;6195964;28;20114;-79
2023/05/14 16:36:45;;;;;;;3.27;2.63;;;;;;;;;;6191082;28;20071;-78
2023/05/14 16:39:47;;;;;;;4.55;3.30;;;;;;;;;;6190692;28;20701;-78
2023/05/14 16:42:51;;;;;;;3.67;3.13;;;;;;;;;;6194777;28;20061;-79
2023/05/14 16:45:53;;;;;;;3.80;3.10;;;;;;;;;;6192419;28;20339;-79
2023/05/14 16:48:57;;;;;;;5.63;2.60;;;;;;;;;;6193840;28;20050;-78
2023/05/14 16:51:59;;;;;;;3.75;2.67;;;;;;;;;;6194837;28;20349;-79
2023/05/14 16:55:02;;;;;;;4.07;2.83;;;;;;;;;;6193061;28;20050;-79
2023/05/14 16:58:04;;;;;;;5.20;2.80;;;;;;;;;;6196817;28;20121;-78
2023/05/14 17:01:07;;;;;;;4.88;2.75;;;;;;;;;;6192168;28;20065;-79
2023/05/14 17:04:10;;;;;;;3.22;2.28;;;;;;;;;;6197881;28;20337;-79
2023/05/14 17:07:12;;;;;;;2.85;2.35;;;;;;;;;;6191363;28;20050;-79
2023/05/14 17:10:15;;;;;;;2.47;2.28;;;;;;;;;;6193956;28;20362;-79
2023/05/14 17:13:17;;;;;;;4.13;2.53;;;;;;;;;;6192657;28;20081;-79
2023/05/14 17:16:22;;;;;;;5.03;2.58;;;;;;;;;;6183051;28;20064;-79
2023/05/14 17:19:28;;;;;;;4.88;3.53;;;;;;;;;;6191159;28;20058;-79
2023/05/14 17:22:30;;;;;;;5.13;3.33;;;;;;;;;;6191895;28;20097;-79
2023/05/14 17:25:33;;;;;;;5.32;3.30;;;;;;;;;;6192064;28;20588;-79
2023/05/14 17:28:39;;;;;;;3.10;2.42;;;;;;;;;;6197737;28;20078;-79
2023/05/14 17:31:41;;;;;;;3.05;2.13;;;;;;;;;;6197175;28;20327;-79
2023/05/14 17:34:44;;;;;;;5.97;1.92;;;;;;;;;;6196364;28;20058;-79
2023/05/14 17:37:47;;;;;;;3.23;1.80;;;;;;;;;;6198535;28;20058;-79
2023/05/14 17:40:49;;;;;;;3.63;2.25;;;;;;;;;;6198173;28;20054;-79
2023/05/14 17:43:51;;;;;;;3.25;2.00;;;;;;;;;;6195598;28;20084;-79
2023/05/14 17:46:52;;;;;;;2.25;1.73;;;;;;;;;;6196879;28;20109;-80
2023/05/14 17:49:56;;;;;;;4.85;2.03;;;;;;;;;;6196679;28;20058;-80
2023/05/14 17:52:59;;;;;;;2.30;1.67;;;;;;;;;;6202358;28;20342;-80
2023/05/14 17:56:01;;;;;;;2.60;1.50;;;;;;;;;;6201142;28;20066;-76
2023/05/14 17:59:03;;;;;;;5.28;1.70;;;;;;;;;;6198464;28;20062;-76
2023/05/14 18:02:07;;;;;;;5.38;1.88;;;;;;;;;;6200753;28;20061;-80
2023/05/14 18:05:10;;;;;;;2.60;1.75;;;;;;;;;;6197935;28;20423;-78
2023/05/14 18:08:13;;;;;;;2.97;1.65;;;;;;;;;;6198259;28;20058;-80
2023/05/14 18:11:15;;;;;;;5.35;1.80;;;;;;;;;;6199201;28;20073;-80
2023/05/14 18:14:17;;;;;;;2.03;1.70;;;;;;;;;;6197608;28;20054;-84